Time;durP1;ratioP1;P1;durP2;ratioP2;P2;SDS_P1;SDS_P2;PMS_P1;PMS_P2;Temp;Humidity;BMP_temperature;BMP_pressure;BME280_temperature;BME280_humidity;BME280_pressure;Samples;Min_cycle;Max_cycle;Signal;HPM_P1;HPM_P2
2023/08/07 00:01:44;;;;;;;2.10;1.53;;;;;;;15.86;nan;99627.34;5010782;28;20545;-77
2023/08/07 00:04:09;;;;;;;1.43;1.33;;;;;;;15.85;nan;99634.44;5016045;28;20787;-77
2023/08/07 00:06:35;;;;;;;1.30;1.20;;;;;;;15.82;nan;99632.03;5013478;28;20206;-78
2023/08/07 00:09:01;;;;;;;1.55;1.42;;;;;;;15.78;nan;99629.78;5018284;28;20282;-77
2023/08/07 00:11:28;;;;;;;3.57;1.60;;;;;;;15.74;nan;99631.00;5015897;28;20212;-77
2023/08/07 00:13:54;;;;;;;2.22;1.40;;;;;;;15.71;nan;99629.44;5017811;28;20219;-77
2023/08/07 00:16:22;;;;;;;2.22;1.50;;;;;;;15.69;nan;99634.06;5019811;28;20299;-77
2023/08/07 00:18:48;;;;;;;2.80;1.90;;;;;;;15.67;nan;99634.16;5017882;28;20196;-77
2023/08/07 00:21:14;;;;;;;3.70;1.40;;;;;;;15.65;nan;99636.06;5019027;28;20536;-78
2023/08/07 00:23:39;;;;;;;1.60;1.20;;;;;;;15.65;nan;99632.59;5019769;28;20298;-78
2023/08/07 00:26:04;;;;;;;2.33;1.50;;;;;;;15.63;nan;99631.88;5012045;28;22216;-77
2023/08/07 00:28:30;;;;;;;1.90;1.53;;;;;;;15.60;nan;99624.19;5013829;28;20317;-77
2023/08/07 00:30:56;;;;;;;2.60;1.33;;;;;;;15.59;nan;99628.66;4994252;28;20215;-77
2023/08/07 00:33:22;;;;;;;3.20;1.27;;;;;;;15.58;nan;99624.34;5016658;28;20238;-77
2023/08/07 00:35:48;;;;;;;3.80;1.35;;;;;;;15.59;nan;99630.47;5010671;28;20223;-78
2023/08/07 00:38:13;;;;;;;1.93;1.07;;;;;;;15.58;nan;99624.34;5015363;28;20283;-77
2023/08/07 00:40:39;;;;;;;2.23;1.20;;;;;;;15.56;nan;99618.34;5013583;28;20206;-77
2023/08/07 00:43:05;;;;;;;6.78;1.80;;;;;;;15.54;nan;99625.56;5012984;28;20202;-77
2023/08/07 00:45:38;;;;;;;2.55;1.60;;;;;;;15.56;nan;99623.63;5018019;28;20211;-77
2023/08/07 00:48:05;;;;;;;2.40;1.17;;;;;;;15.57;nan;99624.47;4997466;28;20210;-77
2023/08/07 00:50:31;;;;;;;2.00;1.45;;;;;;;15.58;nan;99624.34;5012257;28;20191;-77
2023/08/07 00:52:56;;;;;;;1.93;1.40;;;;;;;15.57;nan;99630.59;5012768;28;20206;-78
2023/08/07 00:55:22;;;;;;;2.50;1.50;;;;;;;15.55;nan;99629.88;5013748;28;20204;-77
2023/08/07 00:57:48;;;;;;;1.30;1.20;;;;;;;15.53;nan;99617.72;4994045;28;20752;-77
2023/08/07 01:00:16;;;;;;;1.70;1.57;;;;;;;15.52;nan;99622.19;5012405;28;21341;-77
2023/08/07 01:02:42;;;;;;;2.42;1.27;;;;;;;15.50;nan;99621.50;4996550;28;20552;-77
2023/08/07 01:05:07;;;;;;;2.87;1.23;;;;;;;15.48;nan;99632.22;5009387;28;20208;-77
2023/08/07 01:07:33;;;;;;;1.80;1.30;;;;;;;15.49;nan;99628.59;5014399;28;20261;-77
2023/08/07 01:10:02;;;;;;;2.33;1.30;;;;;;;15.51;nan;99625.81;5010836;28;20198;-77
2023/08/07 01:12:36;;;;;;;2.55;1.65;;;;;;;15.52;nan;99629.31;5016867;28;20277;-77
2023/08/07 01:15:15;;;;;;;1.30;1.20;;;;;;;15.53;nan;99628.31;5016340;28;20246;-78
2023/08/07 01:17:44;;;;;;;3.40;1.30;;;;;;;15.49;nan;99633.88;5014671;28;20191;-77
2023/08/07 01:20:10;;;;;;;1.98;1.38;;;;;;;15.49;nan;99644.47;5008547;28;20264;-77
2023/08/07 01:22:37;;;;;;;1.73;1.30;;;;;;;15.50;nan;99637.38;5016981;28;20199;-77
2023/08/07 01:25:03;;;;;;;4.37;1.77;;;;;;;15.47;nan;99635.84;5013482;28;20210;-78
2023/08/07 01:27:50;;;;;;;7.38;2.17;;;;;;;15.46;nan;99636.78;5014626;28;20219;-78
2023/08/07 01:30:38;;;;;;;2.00;1.40;;;;;;;15.46;nan;99641.25;5013353;28;20191;-78
2023/08/07 01:33:03;;;;;;;2.70;1.50;;;;;;;15.45;nan;99642.22;5016773;28;20205;-77
2023/08/07 01:35:40;;;;;;;1.97;1.37;;;;;;;15.46;nan;99641.25;4997676;28;20445;-77
2023/08/07 01:38:07;;;;;;;2.03;1.45;;;;;;;15.47;nan;99645.56;5017053;28;20199;-77
2023/08/07 01:40:34;;;;;;;3.70;1.55;;;;;;;15.47;nan;99646.41;4993590;28;20194;-77
2023/08/07 01:43:00;;;;;;;2.58;1.50;;;;;;;15.47;nan;99650.84;5001469;28;20284;-77
2023/08/07 01:45:28;;;;;;;1.50;1.30;;;;;;;15.45;nan;99647.53;5014263;28;20317;-77
2023/08/07 01:47:54;;;;;;;3.08;1.50;;;;;;;15.44;nan;99651.13;5018354;28;20230;-77
2023/08/07 01:50:21;;;;;;;2.63;1.40;;;;;;;15.45;nan;99658.09;5016507;28;20202;-77
2023/08/07 01:52:46;;;;;;;1.45;1.17;;;;;;;15.45;nan;99650.16;5014265;28;20469;-77
2023/08/07 01:55:13;;;;;;;1.73;1.63;;;;;;;15.45;nan;99650.16;4996575;28;20259;-78
2023/08/07 01:57:39;;;;;;;2.13;1.92;;;;;;;15.47;nan;99658.78;5051583;23;20211;-80
2023/08/07 02:00:05;;;;;;;3.37;1.73;;;;;;;15.45;nan;99653.66;4909702;28;21095;-82
2023/08/07 02:02:40;;;;;;;2.90;1.73;;;;;;;15.41;nan;99652.19;4929955;28;20241;-82
2023/08/07 02:05:06;;;;;;;2.50;1.47;;;;;;;15.37;nan;99649.97;4932030;28;20173;-79
2023/08/07 02:07:32;;;;;;;3.10;1.47;;;;;;;15.32;nan;99657.44;4941236;28;20463;-81
2023/08/07 02:09:58;;;;;;;1.77;1.45;;;;;;;15.19;nan;99652.31;4931078;28;20285;-79
2023/08/07 02:12:26;;;;;;;1.35;1.25;;;;;;;15.05;nan;99653.44;4938966;28;20785;-79
2023/08/07 02:14:51;;;;;;;1.58;1.00;;;;;;;14.95;nan;99655.97;4929857;28;20230;-81
2023/08/07 02:17:17;;;;;;;1.83;1.30;;;;;;;14.89;nan;99645.06;4927938;28;20236;-79
2023/08/07 02:19:42;;;;;;;1.63;1.37;;;;;;;14.86;nan;99640.88;4935882;28;20205;-80
2023/08/07 02:22:08;;;;;;;1.93;1.40;;;;;;;14.85;nan;99651.56;4939529;28;20285;-79
2023/08/07 02:24:34;;;;;;;2.30;1.60;;;;;;;14.81;nan;99653.63;4943441;28;20201;-81
2023/08/07 02:26:59;;;;;;;1.87;1.53;;;;;;;14.78;nan;99660.00;4932551;28;20232;-82
2023/08/07 02:29:24;;;;;;;3.13;1.90;;;;;;;14.77;nan;99657.47;4941689;28;20269;-79
2023/08/07 02:31:50;;;;;;;1.90;1.20;;;;;;;14.75;nan;99659.41;4942727;28;20224;-80
2023/08/07 02:34:15;;;;;;;3.40;1.50;;;;;;;14.75;nan;99664.69;4939067;28;20211;-80
2023/08/07 02:36:41;;;;;;;4.70;2.65;;;;;;;14.79;nan;99660.81;4936146;28;20495;-81
2023/08/07 02:39:07;;;;;;;1.83;1.43;;;;;;;14.81;nan;99654.44;4937366;28;20197;-79
2023/08/07 02:41:32;;;;;;;2.63;1.60;;;;;;;14.83;nan;99651.69;4941403;28;21114;-80
2023/08/07 02:44:00;;;;;;;3.85;1.80;;;;;;;14.83;nan;99657.81;4934266;28;20287;-79
2023/08/07 02:46:25;;;;;;;3.03;1.80;;;;;;;14.83;nan;99662.28;4939041;28;20279;-79
2023/08/07 02:48:51;;;;;;;2.50;1.30;;;;;;;14.82;nan;99660.56;4936462;28;20308;-79
2023/08/07 02:51:16;;;;;;;2.33;1.40;;;;;;;14.82;nan;99658.81;4940294;28;20276;-82
2023/08/07 02:53:41;;;;;;;5.70;2.00;;;;;;;14.83;nan;99655.19;4935240;28;20232;-78
2023/08/07 02:56:07;;;;;;;3.03;2.73;;;;;;;14.85;nan;99655.03;4916726;28;20196;-79
2023/08/07 02:58:32;;;;;;;3.00;1.50;;;;;;;14.83;nan;99657.81;4941406;28;20275;-78
2023/08/07 03:01:04;;;;;;;1.80;1.43;;;;;;;14.82;nan;99663.22;4951347;28;20203;-81
2023/08/07 03:03:30;;;;;;;6.43;2.53;;;;;;;14.79;nan;99661.66;4950609;28;20204;-78
2023/08/07 03:05:55;;;;;;;1.70;1.30;;;;;;;14.79;nan;99664.31;4949673;28;20772;-79
2023/08/07 03:08:20;;;;;;;5.40;1.63;;;;;;;14.80;nan;99659.88;4954515;28;20209;-81
2023/08/07 03:10:52;;;;;;;2.30;1.40;;;;;;;14.80;nan;99658.06;4954964;28;20293;-81
2023/08/07 03:13:17;;;;;;;3.17;1.50;;;;;;;14.82;nan;99656.16;4957977;28;20201;-82
2023/08/07 03:15:43;;;;;;;2.30;1.40;;;;;;;14.82;nan;99656.16;4941506;28;20637;-79
2023/08/07 03:18:08;;;;;;;1.83;1.40;;;;;;;14.81;nan;99665.03;4961114;28;20967;-78
2023/08/07 03:20:36;;;;;;;2.10;1.30;;;;;;;14.80;nan;99668.66;4954893;28;20209;-79
2023/08/07 03:23:02;;;;;;;2.00;1.50;;;;;;;14.81;nan;99661.56;4937400;28;20212;-81
2023/08/07 03:25:27;;;;;;;4.50;1.90;;;;;;;14.83;nan;99659.63;4956546;28;20212;-80
2023/08/07 03:27:53;;;;;;;2.30;1.57;;;;;;;14.86;nan;99655.91;4953524;28;20903;-82
2023/08/07 03:30:18;;;;;;;2.33;2.13;;;;;;;14.88;nan;99657.47;4953312;28;20255;-82
2023/08/07 03:32:44;;;;;;;3.70;2.13;;;;;;;14.89;nan;99648.56;4951191;28;20200;-78
2023/08/07 03:35:11;;;;;;;2.17;1.90;;;;;;;14.93;nan;99650.00;4948959;28;20271;-79
2023/08/07 03:37:37;;;;;;;4.50;1.77;;;;;;;14.95;nan;99650.69;4950757;28;20339;-81
2023/08/07 03:40:02;;;;;;;2.50;1.93;;;;;;;14.98;nan;99649.59;4955031;28;20205;-80
2023/08/07 03:42:28;;;;;;;1.38;1.27;;;;;;;14.97;nan;99651.41;4953466;28;20214;-79
2023/08/07 03:44:54;;;;;;;1.57;1.37;;;;;;;14.96;nan;99643.59;4952809;28;20200;-79
2023/08/07 03:47:19;;;;;;;2.90;1.90;;;;;;;14.98;nan;99639.03;4932718;28;20463;-79
2023/08/07 03:49:45;;;;;;;1.80;1.50;;;;;;;14.99;nan;99640.72;4951423;28;20220;-82
2023/08/07 03:52:10;;;;;;;2.47;1.77;;;;;;;15.01;nan;99644.06;4956732;28;20200;-81
2023/08/07 03:54:36;;;;;;;4.40;1.73;;;;;;;15.01;nan;99644.94;4959345;28;20220;-79
2023/08/07 03:57:02;;;;;;;1.60;1.50;;;;;;;15.04;nan;99643.81;4967566;28;20200;-81
2023/08/07 03:59:27;;;;;;;1.77;1.63;;;;;;;15.02;nan;99646.59;4931076;28;20303;-81
2023/08/07 04:01:52;;;;;;;2.60;1.70;;;;;;;14.99;nan;99641.56;4956065;28;20204;-78
2023/08/07 04:04:18;;;;;;;2.40;1.63;;;;;;;15.00;nan;99645.88;4951474;28;20309;-79
2023/08/07 04:06:43;;;;;;;2.30;1.77;;;;;;;15.02;nan;99645.75;4957740;28;20245;-79
2023/08/07 04:09:10;;;;;;;2.60;1.93;;;;;;;15.03;nan;99652.72;4950086;28;20212;-81
2023/08/07 04:11:36;;;;;;;2.00;1.40;;;;;;;15.03;nan;99652.72;4945822;28;20850;-81
2023/08/07 04:14:03;;;;;;;3.08;2.00;;;;;;;15.02;nan;99656.34;4948698;28;20200;-80
2023/08/07 04:16:31;;;;;;;2.72;2.00;;;;;;;15.01;nan;99660.78;4923436;28;20251;-80
2023/08/07 04:18:56;;;;;;;1.80;1.33;;;;;;;15.01;nan;99655.50;4950914;28;20212;-81
2023/08/07 04:21:22;;;;;;;3.83;1.50;;;;;;;15.00;nan;99658.25;4950833;28;20197;-79
2023/08/07 04:23:48;;;;;;;1.42;1.33;;;;;;;15.00;nan;99658.25;4954044;28;20207;-81
2023/08/07 04:26:14;;;;;;;2.50;1.70;;;;;;;15.01;nan;99662.56;4959913;28;20200;-80
2023/08/07 04:28:40;;;;;;;2.30;1.40;;;;;;;15.01;nan;99662.56;4956053;28;20295;-79
2023/08/07 04:31:05;;;;;;;6.50;1.80;;;;;;;15.02;nan;99669.56;4950918;28;20244;-80
2023/08/07 04:33:31;;;;;;;2.13;1.90;;;;;;;15.03;nan;99660.66;4957908;28;20974;-78
2023/08/07 04:35:56;;;;;;;1.73;1.60;;;;;;;15.04;nan;99668.47;4959249;28;20201;-79
2023/08/07 04:38:22;;;;;;;2.83;1.83;;;;;;;15.05;nan;99666.66;4955990;28;20219;-82
2023/08/07 04:40:49;;;;;;;2.23;1.63;;;;;;;15.04;nan;99665.84;4953744;28;20295;-79
2023/08/07 04:43:15;;;;;;;1.58;1.48;;;;;;;15.01;nan;99670.50;4954841;28;20255;-82
2023/08/07 04:45:41;;;;;;;2.83;1.60;;;;;;;14.99;nan;99668.00;4954053;28;20200;-80
2023/08/07 04:48:08;;;;;;;1.70;1.60;;;;;;;14.98;nan;99676.88;4950756;28;20287;-78
2023/08/07 04:50:33;;;;;;;1.80;1.35;;;;;;;14.97;nan;99667.28;4954759;28;20200;-80
2023/08/07 04:52:59;;;;;;;5.87;2.00;;;;;;;14.97;nan;99669.09;4949419;28;20203;-80
2023/08/07 04:55:25;;;;;;;2.13;1.50;;;;;;;14.97;nan;99671.75;4952393;28;20629;-81
2023/08/07 04:57:54;;;;;;;4.22;1.73;;;;;;;14.95;nan;99679.78;4949829;28;20216;-78
2023/08/07 05:00:19;;;;;;;1.90;1.65;;;;;;;14.94;nan;99679.94;4949804;28;20188;-79
2023/08/07 05:02:45;;;;;;;1.73;1.63;;;;;;;14.90;nan;99692.53;4948651;28;20580;-80
2023/08/07 05:05:10;;;;;;;2.37;1.53;;;;;;;14.89;nan;99687.38;4954534;28;20208;-78
2023/08/07 05:07:36;;;;;;;3.70;1.50;;;;;;;14.88;nan;99690.97;4951125;28;20212;-78
2023/08/07 05:10:05;;;;;;;1.83;1.40;;;;;;;14.89;nan;99684.75;4952450;28;20208;-80
2023/08/07 05:12:30;;;;;;;2.50;1.80;;;;;;;14.89;nan;99679.44;4955089;28;20267;-81
2023/08/07 05:14:55;;;;;;;2.37;2.13;;;;;;;14.90;nan;99689.88;4956692;28;20209;-80
2023/08/07 05:17:21;;;;;;;3.10;1.80;;;;;;;14.89;nan;99690.03;4955512;28;20196;-81
2023/08/07 05:19:47;;;;;;;1.98;1.73;;;;;;;14.88;nan;99697.13;4959096;28;20296;-78
2023/08/07 05:22:12;;;;;;;3.40;1.60;;;;;;;14.88;nan;99697.13;4954718;28;20196;-78
2023/08/07 05:24:40;;;;;;;1.70;1.40;;;;;;;14.89;nan;99697.97;4959589;28;20204;-80
2023/08/07 05:27:08;;;;;;;1.45;1.35;;;;;;;14.88;nan;99701.56;4959442;28;20403;-78
2023/08/07 05:29:34;;;;;;;6.15;1.95;;;;;;;14.89;nan;99690.03;4956228;28;20593;-80
2023/08/07 05:31:59;;;;;;;1.88;1.70;;;;;;;14.90;nan;99697.81;4954355;28;20196;-78
2023/08/07 05:34:25;;;;;;;3.20;1.73;;;;;;;14.88;nan;99705.06;4953878;28;20238;-79
2023/08/07 05:36:50;;;;;;;2.50;1.70;;;;;;;14.91;nan;99699.53;4952905;28;20438;-81
2023/08/07 05:39:16;;;;;;;2.60;1.73;;;;;;;14.91;nan;99699.53;4953728;28;20695;-79
2023/08/07 05:41:41;;;;;;;2.33;1.90;;;;;;;14.91;nan;99702.16;4956524;28;20220;-81
2023/08/07 05:44:07;;;;;;;2.37;1.50;;;;;;;14.92;nan;99705.66;4955887;28;20402;-79
2023/08/07 05:46:32;;;;;;;1.87;1.43;;;;;;;14.91;nan;99701.34;4955663;28;20227;-79
2023/08/07 05:48:57;;;;;;;2.07;1.40;;;;;;;14.93;nan;99709.97;4955258;28;20224;-80
2023/08/07 05:51:23;;;;;;;2.90;1.70;;;;;;;14.93;nan;99709.97;4953066;28;20209;-80
2023/08/07 05:53:48;;;;;;;2.80;1.80;;;;;;;14.98;nan;99715.72;4951595;28;20208;-82
2023/08/07 05:56:14;;;;;;;2.73;2.00;;;;;;;14.99;nan;99720.06;4953277;28;20450;-81
2023/08/07 05:58:39;;;;;;;4.40;1.93;;;;;;;15.02;nan;99722.47;4950729;28;20220;-80
2023/08/07 06:01:05;;;;;;;1.87;1.77;;;;;;;15.03;nan;99721.50;4953523;28;20219;-78
2023/08/07 06:03:32;;;;;;;1.50;1.40;;;;;;;15.05;nan;99727.50;4952556;28;20263;-79
2023/08/07 06:05:57;;;;;;;2.60;1.70;;;;;;;15.10;nan;99730.63;4954320;28;20442;-81
2023/08/07 06:08:23;;;;;;;3.63;1.63;;;;;;;15.14;nan;99726.75;4953384;28;20267;-79
2023/08/07 06:10:48;;;;;;;2.30;1.50;;;;;;;15.21;nan;99725.31;4953092;28;20260;-80
2023/08/07 06:13:14;;;;;;;3.00;1.70;;;;;;;15.29;nan;99729.16;4947908;28;20201;-80
2023/08/07 06:15:39;;;;;;;4.00;1.80;;;;;;;15.37;nan;99737.31;4944835;28;20256;-78
2023/08/07 06:18:04;;;;;;;5.77;2.07;;;;;;;15.44;nan;99735.81;4945332;28;20707;-78
2023/08/07 06:20:30;;;;;;;2.10;1.90;;;;;;;15.54;nan;99733.28;4946393;28;20203;-79
2023/08/07 06:22:55;;;;;;;2.10;1.73;;;;;;;15.62;nan;99734.31;4948638;28;20685;-81
2023/08/07 06:25:21;;;;;;;3.87;2.43;;;;;;;15.66;nan;99738.41;4946111;28;20285;-79
2023/08/07 06:27:46;;;;;;;3.33;1.73;;;;;;;15.67;nan;99736.59;4946836;28;20201;-81
2023/08/07 06:30:13;;;;;;;2.47;1.73;;;;;;;15.68;nan;99739.13;4951151;28;20618;-80
2023/08/07 06:32:39;;;;;;;2.60;1.88;;;;;;;15.67;nan;99732.13;4951448;28;20555;-78
2023/08/07 06:35:05;;;;;;;1.90;1.27;;;;;;;15.68;nan;99732.97;4954923;28;20795;-82
2023/08/07 06:37:31;;;;;;;1.33;1.20;;;;;;;15.67;nan;99728.66;4953123;28;20445;-78
2023/08/07 06:39:57;;;;;;;1.50;1.30;;;;;;;15.66;nan;99737.53;4951530;28;21063;-80
2023/08/07 06:42:22;;;;;;;2.80;1.40;;;;;;;15.65;nan;99739.34;4948738;28;20213;-78
2023/08/07 06:44:47;;;;;;;2.60;1.30;;;;;;;15.65;nan;99743.81;4953238;28;20304;-78
2023/08/07 06:47:13;;;;;;;2.47;1.17;;;;;;;15.65;nan;99746.47;4952239;28;20205;-80
2023/08/07 06:49:38;;;;;;;8.07;2.23;;;;;;;15.64;nan;99752.72;4948708;28;20225;-78
2023/08/07 06:52:04;;;;;;;2.13;1.57;;;;;;;15.64;nan;99753.56;4953312;28;20201;-80
2023/08/07 06:54:29;;;;;;;4.00;1.53;;;;;;;15.62;nan;99758.13;4948280;28;20268;-78
2023/08/07 06:59:38;;;;;;;1.77;1.40;;;;;;;15.69;nan;99761.19;5156456;23;20319;-79
2023/08/07 07:02:04;;;;;;;2.22;1.30;;;;;;;15.74;nan;99758.97;4988299;28;20203;-80
2023/08/07 07:04:29;;;;;;;1.40;1.30;;;;;;;15.78;nan;99756.91;4990154;28;20205;-78
2023/08/07 07:06:55;;;;;;;3.03;2.20;;;;;;;15.83;nan;99757.38;4993251;28;20568;-80
2023/08/07 07:09:23;;;;;;;1.73;1.27;;;;;;;15.88;nan;99761.31;4990255;28;20203;-79
2023/08/07 07:11:48;;;;;;;2.33;1.40;;;;;;;15.95;nan;99766.94;4991231;28;20475;-79
2023/08/07 07:14:14;;;;;;;1.73;1.20;;;;;;;15.99;nan;99765.72;4989689;28;20206;-79
2023/08/07 07:16:39;;;;;;;1.70;1.30;;;;;;;16.03;nan;99767.13;4988534;28;20207;-80
2023/08/07 07:19:08;;;;;;;2.30;1.10;;;;;;;16.07;nan;99760.63;4988768;28;20213;-80
2023/08/07 07:21:34;;;;;;;2.20;1.63;;;;;;;16.09;nan;99769.28;4990770;28;20829;-80
2023/08/07 07:24:00;;;;;;;1.98;1.52;;;;;;;16.10;nan;99770.97;4989505;28;20511;-78
2023/08/07 07:26:25;;;;;;;3.30;1.40;;;;;;;16.09;nan;99777.25;4990183;28;20736;-81
2023/08/07 07:28:51;;;;;;;3.20;1.40;;;;;;;16.08;nan;99772.88;4989180;28;20543;-78
2023/08/07 07:31:16;;;;;;;2.00;1.40;;;;;;;16.11;nan;99777.09;4987326;28;20192;-79
2023/08/07 07:33:42;;;;;;;2.40;1.47;;;;;;;16.14;nan;99784.78;4990217;28;20192;-78
2023/08/07 07:36:12;;;;;;;2.80;1.47;;;;;;;16.18;nan;99786.22;4989359;28;20265;-78
2023/08/07 07:38:38;;;;;;;3.35;1.60;;;;;;;16.22;nan;99794.75;4987771;28;20599;-79
2023/08/07 07:41:03;;;;;;;2.60;1.70;;;;;;;16.20;nan;99799.31;4987745;28;20283;-81
2023/08/07 07:43:29;;;;;;;2.40;1.87;;;;;;;16.21;nan;99799.22;4987692;28;20614;-78
2023/08/07 07:45:54;;;;;;;2.53;1.80;;;;;;;16.25;nan;99794.47;4991508;28;20464;-81
2023/08/07 07:48:20;;;;;;;2.90;1.50;;;;;;;16.30;nan;99801.06;4991381;28;20211;-80
2023/08/07 07:50:45;;;;;;;1.97;1.73;;;;;;;16.36;nan;99797.06;4989098;28;20201;-78
2023/08/07 07:53:11;;;;;;;2.90;1.53;;;;;;;16.41;nan;99800.16;4988834;28;20204;-80
2023/08/07 07:55:37;;;;;;;2.80;1.50;;;;;;;16.50;nan;99802.06;4989291;28;20205;-78
2023/08/07 07:58:03;;;;;;;1.80;1.63;;;;;;;16.54;nan;99800.81;4987137;28;20229;-81
2023/08/07 08:00:28;;;;;;;2.73;1.60;;;;;;;16.61;nan;99795.84;4994593;23;20242;-79
2023/08/07 08:02:54;;;;;;;1.83;1.07;;;;;;;16.70;nan;99802.16;4977582;28;20490;-79
2023/08/07 08:05:19;;;;;;;3.10;2.20;;;;;;;16.74;nan;99807.06;4987548;28;20176;-79
2023/08/07 08:07:45;;;;;;;1.83;1.23;;;;;;;16.79;nan;99804.03;4993857;28;20217;-79
2023/08/07 08:10:10;;;;;;;3.00;1.40;;;;;;;16.78;nan;99808.50;4968420;28;20414;-79
2023/08/07 08:12:36;;;;;;;3.83;1.77;;;;;;;16.76;nan;99812.22;4960796;28;20291;-79
2023/08/07 08:15:03;;;;;;;1.63;1.20;;;;;;;16.75;nan;99819.34;4957396;28;21071;-79
2023/08/07 08:17:28;;;;;;;2.10;1.47;;;;;;;16.72;nan;99816.97;4956545;28;20229;-79
2023/08/07 08:19:54;;;;;;;2.07;1.83;;;;;;;16.68;nan;99830.59;4956802;28;20458;-79
2023/08/07 08:22:20;;;;;;;5.73;1.37;;;;;;;16.64;nan;99826.56;4959359;28;20562;-78
2023/08/07 08:24:45;;;;;;;5.77;1.70;;;;;;;16.63;nan;99830.16;4957403;28;20640;-78
2023/08/07 08:27:11;;;;;;;2.50;1.67;;;;;;;16.58;nan;99834.06;4956202;28;20675;-78
2023/08/07 08:29:36;;;;;;;4.20;1.83;;;;;;;16.57;nan;99842.97;4956579;28;20215;-78
2023/08/07 08:32:02;;;;;;;4.37;1.53;;;;;;;16.60;nan;99833.91;4960055;28;20247;-78
2023/08/07 08:34:27;;;;;;;2.10;1.43;;;;;;;16.64;nan;99838.00;4957416;28;20197;-78
2023/08/07 08:36:53;;;;;;;3.00;1.70;;;;;;;16.73;nan;99842.50;4959199;28;20951;-78
2023/08/07 08:39:18;;;;;;;2.13;1.80;;;;;;;16.79;nan;99841.16;4961704;28;20778;-78
2023/08/07 08:41:47;;;;;;;4.10;1.73;;;;;;;16.96;nan;99842.38;4961438;28;20833;-78
2023/08/07 08:44:13;;;;;;;1.93;1.10;;;;;;;17.17;nan;99837.84;4961205;28;20203;-77
2023/08/07 08:46:42;;;;;;;2.23;2.03;;;;;;;17.33;nan;99844.47;4957707;28;20507;-78
2023/08/07 08:49:10;;;;;;;1.93;1.33;;;;;;;17.39;nan;99835.94;4957384;28;20485;-77
2023/08/07 08:51:37;;;;;;;2.43;1.70;;;;;;;17.42;nan;99839.19;4956350;28;20466;-78
2023/08/07 08:54:03;;;;;;;3.63;1.63;;;;;;;17.53;nan;99840.06;4959606;28;20619;-78
2023/08/07 08:56:30;;;;;;;4.63;2.00;;;;;;;17.72;nan;99834.78;4939937;28;20488;-78
2023/08/07 08:58:56;;;;;;;1.70;1.43;;;;;;;18.02;nan;99831.19;4957888;28;20468;-78
2023/08/07 09:01:22;;;;;;;3.00;1.33;;;;;;;18.29;nan;99832.31;4955816;28;21624;-78
2023/08/07 09:03:48;;;;;;;3.90;2.90;;;;;;;18.48;nan;99821.63;4961267;28;20187;-79
2023/08/07 09:06:14;;;;;;;2.25;1.60;;;;;;;18.60;nan;99819.63;4961737;28;20874;-79
2023/08/07 09:08:42;;;;;;;2.50;1.50;;;;;;;18.73;nan;99821.97;4957981;28;20258;-79
2023/08/07 09:11:08;;;;;;;2.10;1.37;;;;;;;19.00;nan;99823.88;4962762;28;20549;-79
2023/08/07 09:13:36;;;;;;;7.87;2.03;;;;;;;19.30;nan;99821.91;4959122;28;20463;-79
2023/08/07 09:16:01;;;;;;;2.37;1.70;;;;;;;19.58;nan;99823.59;4958484;28;20459;-79
2023/08/07 09:18:27;;;;;;;4.00;1.67;;;;;;;19.91;nan;99809.78;4961010;28;20426;-81
2023/08/07 09:20:53;;;;;;;3.60;1.50;;;;;;;20.17;nan;99810.69;4963528;28;20747;-79
2023/08/07 09:23:19;;;;;;;2.30;1.53;;;;;;;20.40;nan;99794.16;4959067;28;20861;-80
2023/08/07 09:25:44;;;;;;;2.33;2.13;;;;;;;20.57;nan;99803.13;4962732;28;20212;-79
2023/08/07 09:28:10;;;;;;;3.27;2.50;;;;;;;20.64;nan;99804.19;4960798;28;20223;-79
2023/08/07 09:30:37;;;;;;;2.83;2.00;;;;;;;20.77;nan;99808.09;4960614;28;20545;-80
2023/08/07 09:33:03;;;;;;;3.30;1.70;;;;;;;21.10;nan;99808.25;4964082;28;20458;-83
2023/08/07 09:35:34;;;;;;;3.95;1.70;;;;;;;21.37;nan;99798.34;4963647;28;20584;-84
2023/08/07 09:37:59;;;;;;;3.07;1.40;;;;;;;21.54;nan;99800.06;4964041;28;20449;-84
2023/08/07 09:40:25;;;;;;;1.83;1.67;;;;;;;21.63;nan;99796.44;4959510;28;21231;-85
2023/08/07 09:42:53;;;;;;;2.23;1.67;;;;;;;21.75;nan;99806.81;4943539;28;20506;-85
2023/08/07 09:45:19;;;;;;;1.30;1.20;;;;;;;21.84;nan;99800.47;4966439;28;20258;-85
2023/08/07 09:47:44;;;;;;;2.70;1.23;;;;;;;22.01;nan;99790.63;4965700;28;20480;-86
2023/08/07 09:50:18;;;;;;;4.80;2.17;;;;;;;22.10;nan;99793.13;4962969;28;20816;-85
2023/08/07 09:52:49;;;;;;;2.90;1.27;;;;;;;21.96;nan;99806.34;4949819;28;20251;-85
2023/08/07 09:55:15;;;;;;;1.53;0.97;;;;;;;21.56;nan;99814.13;4963195;28;20845;-84
2023/08/07 09:57:43;;;;;;;1.60;1.33;;;;;;;21.06;nan;99809.56;4951639;28;20452;-84
2023/08/07 10:00:12;;;;;;;2.60;1.40;;;;;;;20.65;nan;99809.34;4963366;28;20452;-85
2023/08/07 10:02:39;;;;;;;2.33;1.30;;;;;;;20.31;nan;99817.28;4963244;28;20629;-85
2023/08/07 10:05:09;;;;;;;1.40;1.30;;;;;;;19.97;nan;99818.00;4964769;28;20467;-84
2023/08/07 10:07:36;;;;;;;1.87;1.13;;;;;;;19.71;nan;99825.88;4964018;28;20474;-85
2023/08/07 10:10:03;;;;;;;2.00;1.30;;;;;;;19.52;nan;99824.16;4950555;28;21260;-85
2023/08/07 10:12:29;;;;;;;1.90;1.30;;;;;;;19.37;nan;99831.84;4963135;28;20973;-84
2023/08/07 10:14:55;;;;;;;3.40;1.30;;;;;;;19.27;nan;99830.22;4961042;28;20475;-84
2023/08/07 10:17:24;;;;;;;1.23;1.13;;;;;;;19.17;nan;99831.09;4948392;28;20503;-85
2023/08/07 10:19:51;;;;;;;1.50;1.10;;;;;;;19.12;nan;99837.84;4964064;28;20291;-85
2023/08/07 10:22:19;;;;;;;1.67;1.10;;;;;;;19.10;nan;99835.34;4965068;28;20747;-85
2023/08/07 10:24:48;;;;;;;1.40;1.30;;;;;;;19.22;nan;99839.47;4964557;28;20518;-85
2023/08/07 10:27:16;;;;;;;2.37;1.50;;;;;;;19.55;nan;99833.69;4961949;28;20455;-85
2023/08/07 10:29:43;;;;;;;2.57;1.27;;;;;;;19.74;nan;99835.41;4963655;28;20498;-85
2023/08/07 10:32:10;;;;;;;2.00;1.50;;;;;;;19.89;nan;99823.25;4964363;28;20886;-85
2023/08/07 10:34:38;;;;;;;3.27;1.27;;;;;;;19.95;nan;99835.13;4967837;28;20471;-85
2023/08/07 10:37:08;;;;;;;2.53;1.50;;;;;;;20.17;nan;99825.81;4967119;28;21053;-86
2023/08/07 10:39:33;;;;;;;2.67;1.40;;;;;;;20.58;nan;99821.66;4965091;28;20444;-85
2023/08/07 10:41:59;;;;;;;1.67;1.40;;;;;;;20.85;nan;99819.84;4967695;28;20567;-85
2023/08/07 10:44:26;;;;;;;3.43;1.00;;;;;;;20.99;nan;99822.72;4967941;28;20232;-85
2023/08/07 10:46:55;;;;;;;1.67;1.30;;;;;;;21.09;nan;99819.09;4968870;28;20209;-85
2023/08/07 10:49:38;;;;;;;1.67;1.23;;;;;;;21.15;nan;99816.63;4963706;28;20461;-85
2023/08/07 10:52:08;;;;;;;1.60;1.20;;;;;;;21.12;nan;99821.47;4967046;28;20441;-85
2023/08/07 10:54:44;;;;;;;1.87;1.10;;;;;;;21.00;nan;99829.72;4964990;28;20485;-85
2023/08/07 10:57:12;;;;;;;3.40;1.60;;;;;;;20.99;nan;99825.41;4963315;28;20438;-85
2023/08/07 10:59:38;;;;;;;2.00;1.53;;;;;;;20.97;nan;99823.88;4960149;28;20465;-85
2023/08/07 11:02:11;;;;;;;1.30;1.20;;;;;;;20.97;nan;99818.53;4959160;28;20468;-85
2023/08/07 11:04:36;;;;;;;1.93;1.23;;;;;;;20.97;nan;99821.22;4962190;28;20559;-85
2023/08/07 11:07:02;;;;;;;2.30;1.43;;;;;;;21.01;nan;99819.91;4960734;28;20483;-86
2023/08/07 11:09:28;;;;;;;1.80;1.50;;;;;;;21.10;nan;99813.59;4961741;28;20217;-85
2023/08/07 11:11:53;;;;;;;5.87;1.30;;;;;;;21.24;nan;99812.16;4964761;28;20196;-85
2023/08/07 11:14:19;;;;;;;3.60;1.07;;;;;;;21.46;nan;99817.94;4968034;28;20223;-86
2023/08/07 11:16:46;;;;;;;1.30;1.20;;;;;;;21.65;nan;99807.78;4971614;28;20227;-85
2023/08/07 11:19:14;;;;;;;1.33;1.23;;;;;;;21.74;nan;99816.66;4953803;28;20978;-86
2023/08/07 11:21:40;;;;;;;1.40;1.20;;;;;;;21.98;nan;99807.84;4968603;28;20473;-86
2023/08/07 11:24:12;;;;;;;1.53;1.30;;;;;;;22.29;nan;99804.50;4968419;28;20429;-87
2023/08/07 11:26:38;;;;;;;1.83;1.63;;;;;;;22.61;nan;99798.28;4965764;28;21102;-86
2023/08/07 11:29:03;;;;;;;1.90;1.03;;;;;;;22.84;nan;99805.56;4963014;28;21175;-86
2023/08/07 11:31:28;;;;;;;1.70;1.10;;;;;;;22.86;nan;99807.06;4965190;28;20576;-85
2023/08/07 11:33:59;;;;;;;1.63;1.23;;;;;;;22.76;nan;99806.44;4962918;28;20201;-85
2023/08/07 11:36:25;;;;;;;1.60;1.37;;;;;;;22.61;nan;99803.63;4967915;28;20840;-85
2023/08/07 11:38:50;;;;;;;2.67;1.40;;;;;;;22.50;nan;99804.00;4964515;28;20466;-85
2023/08/07 11:41:17;;;;;;;1.50;1.30;;;;;;;22.28;nan;99809.03;4960941;28;20446;-85
2023/08/07 11:43:43;;;;;;;1.87;1.27;;;;;;;21.98;nan;99812.34;4960468;28;20641;-85
2023/08/07 11:46:10;;;;;;;3.03;1.23;;;;;;;21.67;nan;99814.81;4964274;28;20441;-85
2023/08/07 11:48:39;;;;;;;1.63;1.20;;;;;;;21.54;nan;99810.75;4944949;28;20211;-85
2023/08/07 11:51:06;;;;;;;2.30;1.30;;;;;;;21.46;nan;99804.56;4945128;28;20425;-85